Time;durP1;ratioP1;P1;durP2;ratioP2;P2;SDS_P1;SDS_P2;PMS_P1;PMS_P2;Temp;Humidity;BMP_temperature;BMP_pressure;BME280_temperature;BME280_humidity;BME280_pressure;Samples;Min_cycle;Max_cycle;Signal;HPM_P1;HPM_P2
2023/11/18 00:00:14;;;;;;;4.47;3.40;;;6.30;97.50;;;8.10;66.13;98436.47;5010760;28;20050;-69
2023/11/18 00:02:42;;;;;;;6.00;2.97;;;6.30;97.60;;;8.03;66.12;98443.28;5011976;28;20053;-69
2023/11/18 00:05:12;;;;;;;3.83;3.10;;;6.20;97.70;;;8.01;66.34;98437.25;5012439;28;20046;-69
2023/11/18 00:07:40;;;;;;;4.20;3.13;;;6.20;98.10;;;8.01;66.23;98440.72;5012492;28;20042;-68
2023/11/18 00:10:08;;;;;;;4.63;3.40;;;6.10;98.70;;;8.00;66.26;98440.84;5012274;28;20041;-68
2023/11/18 00:12:40;;;;;;;4.23;3.10;;;6.20;98.60;;;8.04;66.28;98440.47;5012107;28;20503;-68
2023/11/18 00:15:11;;;;;;;4.97;4.20;;;6.20;98.60;;;8.05;66.62;98441.34;5004769;28;20530;-69
2023/11/18 00:17:38;;;;;;;3.90;2.90;;;6.20;98.20;;;8.03;66.08;98430.84;5010851;28;20513;-68
2023/11/18 00:20:11;;;;;;;4.67;3.27;;;6.10;97.60;;;8.02;66.05;98442.41;5012017;28;20049;-69
2023/11/18 00:22:41;;;;;;;4.60;3.45;;;6.20;98.30;;;8.03;66.11;98436.16;5012013;28;20507;-69
2023/11/18 00:25:09;;;;;;;5.17;2.60;;;6.10;98.00;;;8.01;66.08;98435.44;5004660;28;20541;-68
2023/11/18 00:27:37;;;;;;;3.60;3.10;;;6.10;97.90;;;7.98;66.10;98438.31;5012071;28;20396;-68
2023/11/18 00:30:08;;;;;;;5.10;3.80;;;6.10;97.60;;;7.97;66.24;98438.44;5010595;28;20046;-69
2023/11/18 00:32:36;;;;;;;3.53;2.70;;;6.10;98.00;;;7.98;66.03;98430.38;5010488;28;20050;-68
2023/11/18 00:35:04;;;;;;;3.50;2.30;;;6.10;97.90;;;7.98;65.74;98437.50;5011558;28;20427;-69
2023/11/18 00:37:33;;;;;;;5.73;2.87;;;6.10;97.80;;;7.93;65.92;98437.88;5011934;28;20491;-69
2023/11/18 00:40:00;;;;;;;4.70;3.40;;;6.00;97.20;;;7.91;65.87;98441.59;5010647;28;20050;-69
2023/11/18 00:42:28;;;;;;;5.77;2.97;;;6.00;97.70;;;7.89;66.08;98439.94;4993343;28;20438;-69
2023/11/18 00:44:56;;;;;;;4.37;2.93;;;6.00;97.90;;;7.86;65.88;98440.16;5010533;28;20050;-70
2023/11/18 00:47:24;;;;;;;6.20;3.30;;;6.00;97.50;;;7.82;65.95;98437.91;5010810;28;20049;-68
2023/11/18 00:49:52;;;;;;;4.10;3.23;;;5.90;98.50;;;7.80;65.80;98435.38;5011437;28;20411;-69
2023/11/18 00:52:20;;;;;;;6.43;3.20;;;6.00;98.50;;;7.78;66.02;98433.81;5011497;28;20049;-69
2023/11/18 00:54:47;;;;;;;5.03;2.87;;;5.90;98.90;;;7.79;66.31;98440.78;5010468;28;20054;-68
2023/11/18 00:57:15;;;;;;;3.80;2.70;;;5.90;99.20;;;7.79;66.00;98436.34;5010394;28;20507;-69
2023/11/18 00:59:43;;;;;;;3.47;2.57;;;5.90;99.00;;;7.84;66.21;98438.63;5009414;28;20045;-69
2023/11/18 01:02:11;;;;;;;5.33;3.47;;;6.00;99.00;;;7.89;66.38;98447.06;4998972;28;20042;-69
2023/11/18 01:04:39;;;;;;;4.77;3.10;;;6.10;99.10;;;7.97;66.37;98444.59;5013743;28;20418;-69
2023/11/18 01:07:08;;;;;;;4.80;3.03;;;6.10;98.60;;;8.01;66.40;98438.09;5010159;28;20050;-69
2023/11/18 01:09:38;;;;;;;6.83;2.97;;;6.10;98.10;;;8.04;66.19;98443.13;5011161;28;20046;-69
2023/11/18 01:12:09;;;;;;;4.87;3.17;;;6.20;98.10;;;8.05;66.11;98441.34;5010362;28;20050;-69
2023/11/18 01:14:39;;;;;;;4.33;2.90;;;6.20;98.20;;;8.11;66.33;98447.94;5010881;28;20042;-69
2023/11/18 01:17:11;;;;;;;4.80;3.40;;;6.20;98.10;;;8.14;66.32;98445.84;4993907;28;20400;-69
2023/11/18 01:19:38;;;;;;;4.17;2.90;;;6.20;97.60;;;8.14;65.95;98451.16;5011221;28;20053;-69
2023/11/18 01:22:06;;;;;;;5.17;3.50;;;6.20;97.50;;;8.11;66.17;98456.72;5010002;28;20050;-69
2023/11/18 01:24:34;;;;;;;4.13;3.30;;;6.20;97.90;;;8.10;66.15;98457.69;5009840;28;20049;-69
2023/11/18 01:27:02;;;;;;;3.90;2.97;;;6.10;98.60;;;8.13;66.08;98465.41;4993702;28;20404;-69
2023/11/18 01:29:30;;;;;;;5.00;3.40;;;6.20;98.30;;;8.15;66.23;98468.78;4993770;28;20056;-69
2023/11/18 01:31:58;;;;;;;6.17;3.47;;;6.20;98.10;;;8.15;66.01;98473.25;5010848;28;20057;-69
2023/11/18 01:34:27;;;;;;;4.93;3.30;;;6.30;98.10;;;8.15;65.98;98471.44;5009402;28;20101;-69
2023/11/18 01:36:56;;;;;;;5.50;3.40;;;6.20;98.20;;;8.14;65.98;98482.16;5009750;28;20042;-68
2023/11/18 01:39:26;;;;;;;7.50;2.97;;;6.20;98.20;;;8.15;65.97;98478.56;5009919;28;20049;-68
2023/11/18 01:41:55;;;;;;;4.23;2.93;;;6.20;97.70;;;8.14;65.95;98468.88;5010011;28;20495;-69
2023/11/18 01:44:23;;;;;;;4.70;3.80;;;6.20;97.70;;;8.09;66.04;98475.41;5009520;28;20057;-69
2023/11/18 01:46:52;;;;;;;4.67;3.53;;;6.10;97.40;;;8.08;66.09;98473.75;5010080;28;20049;-68
2023/11/18 01:49:21;;;;;;;6.17;3.33;;;6.10;97.30;;;8.07;65.32;98468.56;5009680;28;20037;-68
2023/11/18 01:51:53;;;;;;;4.97;3.43;;;6.10;97.30;;;8.07;65.85;98466.75;4993797;28;20068;-69
2023/11/18 01:54:23;;;;;;;3.77;2.97;;;6.10;97.00;;;8.09;65.60;98469.28;5001966;28;20522;-68
2023/11/18 01:56:53;;;;;;;4.33;2.97;;;6.10;96.80;;;8.06;65.84;98467.72;5007427;28;20050;-68
2023/11/18 01:59:20;;;;;;;4.77;3.33;;;6.10;96.80;;;8.04;65.87;98464.34;5009754;28;20530;-67
2023/11/18 02:01:52;;;;;;;4.57;3.23;;;6.10;96.60;;;8.06;66.01;98469.53;5009701;28;20046;-68
2023/11/18 02:04:21;;;;;;;4.53;4.03;;;6.10;97.00;;;8.03;65.66;98470.63;4993428;28;20038;-68
2023/11/18 02:06:50;;;;;;;3.10;2.43;;;6.10;96.50;;;8.03;65.41;98469.78;5009952;28;20503;-68
2023/11/18 02:09:28;;;;;;;6.37;2.47;;;6.10;96.60;;;8.00;65.58;98470.03;4985170;28;20049;-68
2023/11/18 02:12:26;;;;;;;2.83;2.50;;;6.00;97.20;;;7.95;65.75;98469.53;5011078;28;20470;-68
2023/11/18 02:14:57;;;;;;;5.17;2.63;;;6.00;96.60;;;7.89;65.47;98458.50;5010824;28;20052;-67
2023/11/18 02:17:28;;;;;;;3.77;2.30;;;5.90;96.70;;;7.87;65.67;98456.91;5010675;28;20053;-67
2023/11/18 02:19:58;;;;;;;3.53;2.13;;;5.90;96.50;;;7.85;65.73;98457.06;4996195;28;20046;-68
2023/11/18 02:22:26;;;;;;;4.50;2.60;;;5.90;96.50;;;7.85;65.42;98457.06;5012922;28;20117;-68
2023/11/18 02:24:54;;;;;;;3.10;2.30;;;5.90;96.50;;;7.83;65.34;98460.78;4997061;28;20053;-68
2023/11/18 02:27:24;;;;;;;3.40;2.73;;;5.80;95.80;;;7.79;65.03;98459.34;5013398;28;20049;-68
2023/11/18 02:29:51;;;;;;;4.27;2.23;;;5.80;96.60;;;7.78;65.31;98455.84;5013006;28;20077;-67
2023/11/18 02:32:51;;;;;;;2.60;1.90;;;5.80;96.30;;;7.77;65.40;98454.16;5004913;28;20057;-68
2023/11/18 02:35:30;;;;;;;3.13;2.40;;;5.80;96.60;;;7.79;65.17;98462.00;4996897;28;20534;-67
2023/11/18 02:38:00;;;;;;;4.63;2.50;;;5.80;96.30;;;7.76;65.00;98464.91;5014062;28;20046;-68
2023/11/18 02:40:35;;;;;;;3.30;2.30;;;5.70;95.70;;;7.74;65.09;98459.72;5012706;28;20057;-68
2023/11/18 02:43:05;;;;;;;3.33;2.20;;;5.70;96.20;;;7.73;65.02;98467.78;5012387;28;20181;-67
2023/11/18 02:45:35;;;;;;;2.90;2.27;;;5.70;96.30;;;7.73;65.25;98468.63;5014178;28;20041;-68
2023/11/18 02:48:06;;;;;;;3.53;2.40;;;5.70;97.40;;;7.73;65.02;98465.13;5012650;28;20041;-68
2023/11/18 02:50:35;;;;;;;4.97;2.33;;;5.70;96.10;;;7.71;65.08;98465.25;5014008;28;20050;-68
2023/11/18 02:53:05;;;;;;;4.83;2.27;;;5.70;95.90;;;7.69;64.92;98469.84;5012100;28;20045;-68
2023/11/18 02:55:33;;;;;;;4.30;2.20;;;5.70;96.10;;;7.69;65.12;98465.38;5012643;28;20050;-68
2023/11/18 02:58:02;;;;;;;3.47;2.50;;;5.70;96.40;;;7.71;65.01;98461.78;5012724;28;20113;-68
2023/11/18 03:00:34;;;;;;;3.00;2.23;;;5.70;95.80;;;7.71;65.02;98454.66;5012326;28;20053;-68
2023/11/18 03:03:02;;;;;;;3.00;2.27;;;5.80;96.00;;;7.68;65.34;98455.75;5012685;28;20059;-68
2023/11/18 03:05:31;;;;;;;4.30;2.13;;;5.70;96.20;;;7.68;65.38;98455.75;5012684;28;20053;-67
2023/11/18 03:07:58;;;;;;;3.47;2.60;;;5.70;96.30;;;7.66;65.08;98444.44;5013677;28;20136;-68
2023/11/18 03:10:26;;;;;;;3.47;2.07;;;5.70;95.60;;;7.64;65.14;98445.53;5013402;28;20042;-68
2023/11/18 03:12:54;;;;;;;3.50;2.03;;;5.60;95.80;;;7.62;65.39;98453.59;5013326;28;20042;-68
2023/11/18 03:15:22;;;;;;;2.50;2.00;;;5.60;96.70;;;7.59;65.13;98448.53;5013543;28;20050;-68
2023/11/18 03:17:52;;;;;;;3.13;2.00;;;5.60;96.40;;;7.60;65.33;98449.38;5012394;28;20053;-68
2023/11/18 03:20:23;;;;;;;3.33;2.07;;;5.70;96.10;;;7.56;65.35;98454.09;5011913;28;20511;-68
2023/11/18 03:22:51;;;;;;;6.13;2.27;;;5.70;96.10;;;7.54;65.57;98450.72;4996139;28;20430;-68
2023/11/18 03:25:21;;;;;;;3.30;2.53;;;5.60;95.80;;;7.56;65.31;98455.88;5012277;28;20507;-68
2023/11/18 03:27:49;;;;;;;3.50;2.27;;;5.60;96.10;;;7.58;65.16;98448.66;5003472;28;20057;-68
2023/11/18 03:30:18;;;;;;;4.00;2.60;;;5.60;96.10;;;7.60;65.42;98452.88;5012040;28;20057;-68
2023/11/18 03:32:45;;;;;;;4.30;2.60;;;5.60;95.40;;;7.55;65.39;98444.44;5011888;28;20053;-68
2023/11/18 03:35:13;;;;;;;3.47;2.50;;;5.60;95.50;;;7.55;65.09;98452.41;5011739;28;20525;-68
2023/11/18 03:37:41;;;;;;;2.97;2.27;;;5.60;95.90;;;7.55;65.17;98455.06;5011987;28;20076;-68
2023/11/18 03:40:14;;;;;;;4.03;2.43;;;5.60;95.20;;;7.56;65.22;98464.69;5012007;28;20058;-68
2023/11/18 03:42:42;;;;;;;3.00;1.93;;;5.60;95.20;;;7.55;65.00;98456.88;5011817;28;20056;-67
2023/11/18 03:45:10;;;;;;;2.43;1.60;;;5.60;94.70;;;7.51;64.97;98458.91;5011798;28;20045;-68
2023/11/18 03:47:38;;;;;;;2.90;1.80;;;5.50;94.30;;;7.46;64.74;98456.63;5012843;28;20042;-68
2023/11/18 03:50:08;;;;;;;3.30;2.13;;;5.50;94.00;;;7.45;64.74;98456.75;5012605;28;20049;-69
2023/11/18 03:52:37;;;;;;;2.40;1.73;;;5.50;93.70;;;7.40;64.63;98459.75;5012509;28;20050;-68
2023/11/18 03:55:06;;;;;;;2.77;1.80;;;5.50;93.60;;;7.43;64.88;98456.03;5011600;28;20342;-68
2023/11/18 03:57:34;;;;;;;2.33;1.60;;;5.50;93.80;;;7.43;64.39;98453.38;5012352;28;20050;-68
2023/11/18 04:00:03;;;;;;;1.93;1.40;;;5.50;93.60;;;7.44;64.71;98461.22;5010471;28;20070;-68
2023/11/18 04:02:37;;;;;;;2.63;2.43;;;5.50;94.80;;;7.49;64.46;98460.84;5014583;28;20460;-68
2023/11/18 04:05:08;;;;;;;1.80;1.50;;;5.60;93.70;;;7.50;64.50;98462.50;5011511;28;20046;-68
2023/11/18 04:07:35;;;;;;;2.40;1.60;;;5.60;93.00;;;7.52;64.52;98460.56;5011499;28;20042;-68
2023/11/18 04:10:06;;;;;;;2.50;1.70;;;5.60;93.40;;;7.53;64.35;98453.50;5012257;28;20049;-68
2023/11/18 04:12:34;;;;;;;1.80;1.60;;;5.60;93.50;;;7.51;64.69;98464.22;5011113;28;20050;-68
2023/11/18 04:15:04;;;;;;;2.80;1.50;;;5.60;93.20;;;7.47;64.51;98465.41;5012185;28;20052;-68
2023/11/18 04:17:32;;;;;;;2.40;1.53;;;5.50;93.50;;;7.46;64.05;98467.25;5005131;28;20053;-68
2023/11/18 04:20:00;;;;;;;2.23;1.47;;;5.50;93.90;;;7.48;64.38;98467.97;5011209;28;20527;-68
2023/11/18 04:22:28;;;;;;;3.07;1.73;;;5.50;93.50;;;7.48;64.21;98464.44;5011452;28;20034;-68
2023/11/18 04:24:55;;;;;;;3.60;2.03;;;5.50;93.70;;;7.48;64.40;98461.78;5012240;28;20049;-68
2023/11/18 04:27:23;;;;;;;2.37;1.73;;;5.50;94.10;;;7.46;64.22;98463.72;5012157;28;20045;-68
2023/11/18 04:29:51;;;;;;;2.10;1.67;;;5.40;93.90;;;7.43;64.16;98461.34;5010382;28;20042;-69
2023/11/18 04:32:19;;;;;;;3.37;1.87;;;5.40;93.70;;;7.42;64.01;98455.16;5012049;28;20050;-68
2023/11/18 04:34:46;;;;;;;2.90;2.07;;;5.50;94.00;;;7.41;64.39;98460.63;5010264;28;20050;-69
2023/11/18 04:37:14;;;;;;;3.57;1.70;;;5.40;93.50;;;7.38;64.41;98460.84;5011746;28;20044;-69
2023/11/18 04:39:42;;;;;;;2.43;1.90;;;5.40;93.70;;;7.35;64.59;98456.63;5010980;28;20038;-68
2023/11/18 04:42:10;;;;;;;2.30;2.10;;;5.40;94.00;;;7.30;64.32;98448.19;5011750;28;20050;-69
2023/11/18 04:44:38;;;;;;;2.70;1.87;;;5.30;93.40;;;7.26;64.29;98446.75;5010273;28;20053;-68
2023/11/18 04:47:06;;;;;;;3.97;2.20;;;5.30;95.00;;;7.24;64.07;98443.38;5010904;28;20061;-68
2023/11/18 04:49:34;;;;;;;2.93;1.93;;;5.20;94.80;;;7.21;64.08;98451.56;5002374;28;20042;-68
2023/11/18 04:52:02;;;;;;;3.67;2.27;;;5.20;94.50;;;7.16;64.17;98456.41;5011047;28;20046;-68
2023/11/18 04:54:30;;;;;;;2.30;1.90;;;5.10;94.90;;;7.14;64.02;98456.50;5011002;28;20053;-68
2023/11/18 04:56:58;;;;;;;2.93;2.10;;;5.10;94.80;;;7.06;64.25;98451.81;5008803;28;20042;-69
2023/11/18 04:59:25;;;;;;;3.10;2.20;;;5.00;95.20;;;7.02;64.10;98447.72;5010089;28;20060;-69
2023/11/18 05:01:53;;;;;;;4.97;2.10;;;5.00;95.70;;;6.97;64.17;98449.88;5011486;28;20044;-68
2023/11/18 05:04:21;;;;;;;2.93;2.20;;;4.90;96.00;;;6.92;64.16;98453.84;5011334;28;20418;-68
2023/11/18 05:06:48;;;;;;;2.60;2.10;;;4.80;95.80;;;6.82;64.53;98457.19;5012221;28;20483;-68
2023/11/18 05:09:18;;;;;;;2.53;1.77;;;4.80;96.20;;;6.79;64.22;98446.84;5011297;28;20045;-68
2023/11/18 05:11:46;;;;;;;4.70;1.83;;;4.70;96.70;;;6.77;64.62;98446.13;5011879;28;20053;-68
2023/11/18 05:14:16;;;;;;;3.33;1.83;;;4.70;96.30;;;6.72;64.46;98444.78;5011614;28;20049;-68
2023/11/18 05:16:44;;;;;;;4.37;2.20;;;4.60;96.40;;;6.69;64.62;98440.59;4994598;28;20408;-68
2023/11/18 05:19:12;;;;;;;6.77;3.67;;;4.60;96.30;;;6.67;64.59;98447.78;5011544;28;20057;-68
2023/11/18 05:21:39;;;;;;;4.67;3.00;;;4.60;96.50;;;6.65;64.37;98437.31;5011321;28;20038;-68
2023/11/18 05:24:08;;;;;;;3.53;3.10;;;4.60;96.90;;;6.64;64.48;98440.06;5009697;28;20423;-68
2023/11/18 05:26:36;;;;;;;3.07;2.53;;;4.60;96.80;;;6.60;64.65;98443.91;5003309;28;20046;-68
2023/11/18 05:29:03;;;;;;;3.30;2.43;;;4.60;96.60;;;6.58;65.10;98446.69;5010081;28;20053;-68
2023/11/18 05:31:32;;;;;;;2.77;2.07;;;4.60;96.60;;;6.57;64.80;98447.66;5010972;28;20539;-68
2023/11/18 05:33:59;;;;;;;7.17;4.73;;;4.50;96.50;;;6.60;64.94;98441.28;5009446;28;20046;-68
2023/11/18 05:36:27;;;;;;;7.57;4.40;;;4.60;96.30;;;6.60;64.40;98441.28;5011329;28;20061;-69
2023/11/18 05:38:55;;;;;;;8.60;3.23;;;4.60;95.80;;;6.55;64.79;98441.59;5009823;28;20530;-68
2023/11/18 05:41:30;;;;;;;5.67;3.30;;;4.50;96.50;;;6.54;64.85;98453.16;5010447;28;20042;-68
2023/11/18 05:43:58;;;;;;;4.60;3.00;;;4.50;96.50;;;6.49;64.86;98453.53;5010636;28;20033;-68
2023/11/18 05:46:29;;;;;;;5.93;4.67;;;4.40;96.30;;;6.47;65.26;98449.28;5010991;28;20392;-68
2023/11/18 05:49:06;;;;;;;4.70;3.43;;;4.40;96.90;;;6.43;64.93;98453.13;5010743;28;20037;-68
2023/11/18 05:51:33;;;;;;;4.37;2.60;;;4.50;97.50;;;6.41;64.72;98445.28;5011270;28;20503;-68
2023/11/18 05:54:01;;;;;;;3.67;2.93;;;4.40;97.20;;;6.41;64.66;98445.28;5014582;28;20049;-68
2023/11/18 05:56:28;;;;;;;3.10;2.60;;;4.50;97.30;;;6.45;65.29;98445.91;5014679;28;20050;-68
2023/11/18 05:58:56;;;;;;;4.47;3.00;;;4.50;97.10;;;6.43;65.15;98443.38;5013648;28;20063;-68
2023/11/18 06:01:27;;;;;;;3.93;2.97;;;4.50;96.80;;;6.44;65.58;98433.66;5012871;28;20046;-68
2023/11/18 06:03:56;;;;;;;2.90;2.60;;;4.50;96.50;;;6.44;64.81;98431.84;5013072;28;20395;-68
2023/11/18 06:06:24;;;;;;;3.00;2.30;;;4.50;97.10;;;6.46;65.28;98431.75;5013395;28;20045;-67
2023/11/18 06:08:53;;;;;;;4.13;2.60;;;4.60;96.20;;;6.45;65.27;98436.16;5014726;28;20372;-67
2023/11/18 06:11:23;;;;;;;3.63;2.33;;;4.50;96.30;;;6.45;65.17;98432.69;5014464;28;20503;-67
2023/11/18 06:13:52;;;;;;;3.77;2.40;;;4.50;96.00;;;6.44;65.21;98428.38;5012790;28;20472;-70
2023/11/18 06:16:24;;;;;;;4.53;2.27;;;4.50;96.30;;;6.42;64.88;98417.91;5013513;28;20064;-68
2023/11/18 06:18:54;;;;;;;3.57;2.43;;;4.60;96.60;;;6.42;65.21;98423.19;5014836;28;20064;-71
2023/11/18 06:21:29;;;;;;;2.93;2.23;;;4.60;96.00;;;6.40;65.06;98413.69;5014222;28;20042;-71
2023/11/18 06:23:59;;;;;;;3.50;2.47;;;4.60;96.20;;;6.43;65.39;98426.66;5012628;28;20080;-71
2023/11/18 06:26:27;;;;;;;3.47;2.30;;;4.70;95.60;;;6.45;65.63;98436.16;5014139;28;20042;-71
2023/11/18 06:28:56;;;;;;;2.90;1.90;;;4.70;95.60;;;6.43;64.67;98453.97;5014227;28;20045;-71
2023/11/18 06:31:24;;;;;;;4.27;3.17;;;4.60;95.60;;;6.45;65.40;98454.69;5014123;28;20529;-70
2023/11/18 06:33:52;;;;;;;2.73;1.90;;;4.70;95.50;;;6.44;65.29;98460.94;5012830;28;20049;-71
2023/11/18 06:36:22;;;;;;;3.13;2.20;;;4.70;95.80;;;6.43;64.97;98458.41;5013535;28;20046;-71
2023/11/18 06:38:53;;;;;;;2.73;1.97;;;4.70;95.10;;;6.40;65.68;98459.50;5014471;28;20049;-71
2023/11/18 06:41:23;;;;;;;2.93;1.97;;;4.60;95.00;;;6.40;64.92;98463.94;5014720;28;20050;-71
2023/11/18 06:43:56;;;;;;;3.37;2.50;;;4.70;95.10;;;6.35;65.46;98474.84;5013588;28;20057;-71
2023/11/18 06:46:33;;;;;;;3.78;2.35;;;4.60;95.10;;;6.28;65.53;98461.25;5014130;28;20042;-71
2023/11/18 06:49:07;;;;;;;4.43;2.80;;;4.60;95.70;;;6.33;65.41;98454.78;5013937;28;20045;-71
2023/11/18 06:51:35;;;;;;;4.78;2.65;;;4.60;96.10;;;6.34;65.47;98441.44;5012550;28;20426;-71
2023/11/18 06:54:13;;;;;;;3.40;2.40;;;4.60;96.30;;;6.39;65.75;98449.03;5012668;28;20046;-71
2023/11/18 06:56:42;;;;;;;3.60;2.50;;;4.70;95.70;;;6.42;65.30;98443.53;5013895;28;20415;-71
2023/11/18 06:59:15;;;;;;;3.30;2.37;;;4.70;95.80;;;6.41;65.44;98450.59;5012395;28;20427;-71
2023/11/18 07:01:43;;;;;;;3.87;2.40;;;4.70;95.30;;;6.44;65.67;98444.25;5012821;28;20045;-71
2023/11/18 07:04:14;;;;;;;3.97;2.30;;;4.70;95.80;;;6.49;65.07;98442.94;5012771;28;20296;-71
2023/11/18 07:06:43;;;;;;;3.03;2.30;;;4.70;94.90;;;6.48;65.29;98441.25;5013661;28;20037;-71
2023/11/18 07:09:20;;;;;;;2.93;1.73;;;4.80;94.70;;;6.55;65.40;98435.47;5013582;28;20053;-71
2023/11/18 07:11:48;;;;;;;2.50;2.10;;;4.80;95.00;;;6.60;64.99;98447.41;5006027;28;20046;-72
2023/11/18 07:14:16;;;;;;;3.33;2.07;;;4.90;94.40;;;6.63;65.52;98451.59;5012664;28;20061;-71
2023/11/18 07:16:44;;;;;;;2.93;2.07;;;5.00;93.70;;;6.57;65.38;98460.00;5013405;28;20041;-71
2023/11/18 07:19:19;;;;;;;2.83;2.00;;;5.00;93.50;;;6.54;65.64;98461.09;5012955;28;20054;-69
2023/11/18 07:21:49;;;;;;;4.30;2.10;;;5.00;93.80;;;6.67;65.62;98461.88;5004589;28;20053;-67
2023/11/18 07:24:17;;;;;;;2.80;1.90;;;5.00;94.30;;;6.77;65.84;98467.28;5012878;28;20038;-67
2023/11/18 07:26:45;;;;;;;3.77;2.17;;;5.20;93.60;;;6.79;65.51;98464.53;5013036;28;20049;-68
2023/11/18 07:29:13;;;;;;;3.33;2.37;;;5.20;92.70;;;6.84;65.00;98481.75;5013002;28;20046;-70
2023/11/18 07:31:43;;;;;;;4.70;1.90;;;5.20;93.50;;;6.81;65.27;98466.09;5012625;28;20074;-70
2023/11/18 07:34:10;;;;;;;2.87;1.83;;;5.20;92.20;;;6.86;65.37;98463.94;5012925;28;20050;-70
2023/11/18 07:36:38;;;;;;;3.03;2.20;;;5.30;92.50;;;6.90;65.30;98467.19;5013286;28;20050;-67
2023/11/18 07:39:15;;;;;;;3.50;1.90;;;5.30;92.40;;;6.97;65.01;98452.53;5013146;28;20053;-70
2023/11/18 07:41:43;;;;;;;2.70;1.77;;;5.30;92.30;;;7.02;64.60;98460.97;5012885;28;20476;-71
2023/11/18 07:44:12;;;;;;;5.00;2.23;;;5.40;92.30;;;7.03;65.31;98459.16;5012680;28;20042;-70
2023/11/18 07:46:42;;;;;;;3.47;1.87;;;5.40;90.90;;;7.09;64.86;98448.06;5012642;28;20053;-70
2023/11/18 07:49:10;;;;;;;2.63;2.07;;;5.50;92.00;;;7.13;64.93;98449.50;5012822;28;20521;-68
2023/11/18 07:51:40;;;;;;;2.80;2.03;;;5.50;92.10;;;7.16;64.38;98443.16;5012404;28;20046;-70
2023/11/18 07:54:09;;;;;;;4.80;2.10;;;5.50;90.70;;;7.22;64.81;98440.84;5012188;28;20522;-68
2023/11/18 07:56:38;;;;;;;3.93;2.30;;;5.50;91.10;;;7.24;64.66;98444.22;5011132;28;20053;-72
2023/11/18 07:59:08;;;;;;;2.80;2.10;;;5.50;91.40;;;7.23;64.64;98452.28;5011196;28;20061;-71
2023/11/18 08:01:35;;;;;;;4.73;2.37;;;5.50;90.90;;;7.25;64.33;98443.28;5012228;28;20386;-68
2023/11/18 08:04:06;;;;;;;2.27;2.00;;;5.50;91.70;;;7.32;64.34;98445.44;5011950;28;20054;-67
2023/11/18 08:06:34;;;;;;;2.50;1.97;;;5.60;91.40;;;7.31;64.46;98452.56;5012352;28;20053;-68
2023/11/18 08:09:02;;;;;;;3.77;2.27;;;5.60;90.90;;;7.36;64.33;98454.81;5011882;28;20037;-69
2023/11/18 08:11:30;;;;;;;3.37;2.33;;;5.60;92.30;;;7.40;64.74;98440.38;5012463;28;20403;-70
2023/11/18 08:13:58;;;;;;;3.93;2.10;;;5.70;91.90;;;7.45;64.74;98451.44;5011477;28;20044;-69
2023/11/18 08:16:27;;;;;;;4.63;2.53;;;5.70;91.20;;;7.43;64.61;98466.63;5011028;28;20046;-69
2023/11/18 08:18:55;;;;;;;3.97;2.20;;;5.80;91.00;;;7.39;64.62;98468.69;5004257;28;20049;-70
2023/11/18 08:21:23;;;;;;;4.60;2.90;;;5.70;90.30;;;7.39;64.49;98465.19;5012156;28;20050;-69
2023/11/18 08:23:51;;;;;;;7.83;4.03;;;5.70;91.10;;;7.40;64.04;98465.03;5011548;28;20046;-68
2023/11/18 08:26:20;;;;;;;4.03;2.70;;;5.70;91.10;;;7.45;64.19;98462.88;5011810;28;20419;-69
2023/11/18 08:28:48;;;;;;;4.17;2.83;;;5.70;90.50;;;7.51;64.08;98461.56;5011223;28;20046;-68
2023/11/18 08:31:16;;;;;;;4.70;2.63;;;5.80;91.10;;;7.48;63.94;98464.44;5010663;28;20042;-71
2023/11/18 08:33:45;;;;;;;3.37;2.10;;;5.80;90.50;;;7.51;63.83;98461.56;5011347;28;20050;-69
2023/11/18 08:36:12;;;;;;;3.57;2.53;;;5.80;90.90;;;7.48;64.02;98464.44;5011968;28;20060;-66
2023/11/18 08:38:40;;;;;;;3.93;2.13;;;5.70;91.00;;;7.52;64.13;98459.75;5011782;28;20061;-67
2023/11/18 08:41:09;;;;;;;3.37;2.33;;;5.80;89.60;;;7.57;63.88;98445.16;5011477;28;20061;-65
2023/11/18 08:43:36;;;;;;;3.17;2.17;;;5.90;89.40;;;7.60;63.98;98447.59;5011201;28;20038;-66
2023/11/18 08:46:04;;;;;;;3.20;2.37;;;5.90;89.60;;;7.66;63.98;98455.03;5011833;28;20038;-65
2023/11/18 08:48:33;;;;;;;4.90;2.43;;;6.00;89.90;;;7.69;64.17;98464.53;5010760;28;20053;-65
2023/11/18 08:51:01;;;;;;;2.77;2.30;;;6.00;89.20;;;7.70;63.60;98455.63;5012106;28;20415;-65
2023/11/18 08:53:29;;;;;;;3.63;2.40;;;6.00;89.60;;;7.68;63.87;98455.75;5011045;28;20297;-66
2023/11/18 08:55:56;;;;;;;3.27;2.47;;;6.00;88.90;;;7.72;63.45;98442.28;5003718;28;20054;-66
2023/11/18 08:58:27;;;;;;;4.73;2.70;;;6.00;89.60;;;7.76;63.54;98441.06;5011528;28;20049;-66
2023/11/18 09:01:14;;;;;;;4.53;3.20;;;6.10;89.40;;;7.75;63.96;98432.22;5002875;28;20038;-66
2023/11/18 09:03:43;;;;;;;4.00;2.80;;;6.10;89.80;;;7.81;63.59;98441.50;5011114;28;20069;-67
2023/11/18 09:06:27;;;;;;;4.87;2.77;;;6.10;90.00;;;7.85;63.95;98432.34;5010442;28;20388;-67
2023/11/18 09:08:57;;;;;;;4.20;3.30;;;6.20;90.00;;;7.90;63.72;98438.13;5010319;28;20042;-66
2023/11/18 09:11:28;;;;;;;4.70;3.13;;;6.30;88.80;;;7.98;63.66;98440.97;5011344;28;20041;-65
2023/11/18 09:14:00;;;;;;;5.90;2.80;;;6.40;89.20;;;8.03;63.82;98438.81;5010710;28;20053;-66
2023/11/18 09:16:29;;;;;;;3.47;2.30;;;6.50;88.00;;;8.11;63.65;98450.59;5011123;28;20057;-66
2023/11/18 09:19:02;;;;;;;3.27;2.33;;;6.60;88.50;;;8.15;63.51;98442.25;5003221;28;20050;-65
2023/11/18 09:21:35;;;;;;;4.87;2.30;;;6.60;86.90;;;8.15;63.26;98444.06;5011138;28;20499;-66
2023/11/18 09:24:11;;;;;;;7.37;2.90;;;6.50;87.00;;;8.24;63.51;98438.84;5003434;28;20049;-66
2023/11/18 09:26:39;;;;;;;3.13;2.43;;;6.60;87.50;;;8.26;63.40;98439.56;5010707;28;20053;-66
2023/11/18 09:29:08;;;;;;;3.27;2.07;;;6.70;87.60;;;8.37;63.36;98438.66;5011055;28;20418;-66
2023/11/18 09:31:37;;;;;;;3.77;2.70;;;6.80;87.00;;;8.44;63.33;98436.38;5009837;28;20042;-66
2023/11/18 09:34:06;;;;;;;4.20;2.47;;;6.80;87.00;;;8.46;63.14;98439.75;5010803;28;20581;-66
2023/11/18 09:36:34;;;;;;;3.30;2.30;;;6.90;87.00;;;8.55;63.34;98438.09;5010755;28;20493;-67
2023/11/18 09:39:03;;;;;;;3.27;2.10;;;7.00;86.60;;;8.60;62.97;98444.72;5005999;28;20041;-67
2023/11/18 09:41:33;;;;;;;4.93;2.10;;;7.00;85.50;;;8.59;62.67;98451.00;5009890;28;20050;-67
2023/11/18 09:44:02;;;;;;;3.30;2.07;;;7.00;85.40;;;8.62;62.70;98452.56;5009227;28;20472;-67
2023/11/18 09:46:32;;;;;;;4.50;2.10;;;7.00;85.20;;;8.64;62.84;98446.13;5011066;28;20050;-67
2023/11/18 09:49:27;;;;;;;3.27;2.20;;;7.10;86.40;;;8.73;62.79;98443.69;5002907;28;20503;-66
2023/11/18 09:51:57;;;;;;;8.80;3.33;;;7.20;85.80;;;8.81;62.67;98438.56;5010696;28;20515;-67
2023/11/18 09:55:14;;;;;;;2.73;2.07;;;7.30;85.50;;;8.80;62.50;98431.56;5010523;28;20057;-65
2023/11/18 09:57:46;;;;;;;3.10;2.13;;;7.30;83.80;;;8.91;62.44;98430.66;4982780;28;20054;-65
2023/11/18 10:00:26;;;;;;;3.07;2.00;;;7.40;84.70;;;8.99;62.43;98436.16;4992207;28;20109;-64
2023/11/18 10:02:56;;;;;;;3.90;2.17;;;7.50;84.90;;;9.06;62.44;98437.31;5002198;28;20066;-64
2023/11/18 10:05:27;;;;;;;4.07;2.50;;;7.50;84.40;;;9.11;62.27;98437.78;5010838;28;20042;-64
2023/11/18 10:07:58;;;;;;;3.60;2.67;;;7.60;83.40;;;9.18;62.45;98436.25;5010607;28;20094;-67
2023/11/18 10:10:35;;;;;;;3.23;2.77;;;7.60;84.50;;;9.23;62.03;98428.72;5010729;28;20046;-68
2023/11/18 10:13:08;;;;;;;6.53;2.27;;;7.70;83.70;;;9.28;61.88;98428.31;5009425;28;20419;-67
2023/11/18 10:15:36;;;;;;;3.60;2.20;;;7.70;82.20;;;9.31;61.66;98429.88;5010244;28;20053;-67
2023/11/18 10:18:06;;;;;;;3.20;1.90;;;7.80;83.30;;;9.33;61.36;98426.09;5001443;28;20076;-66
2023/11/18 10:20:53;;;;;;;4.67;2.10;;;7.80;81.80;;;9.39;61.81;98422.91;5010126;28;20507;-66
2023/11/18 10:23:23;;;;;;;4.50;2.23;;;7.90;83.00;;;9.46;61.87;98421.41;5002500;28;20054;-66
2023/11/18 10:25:52;;;;;;;4.83;2.73;;;8.00;83.00;;;9.50;61.75;98427.28;5002335;28;20042;-66
2023/11/18 10:28:36;;;;;;;2.87;2.20;;;8.00;82.30;;;9.53;61.50;98439.47;5009021;28;20046;-65
2023/11/18 10:31:07;;;;;;;4.00;2.63;;;8.00;82.60;;;9.53;61.12;98437.63;5002079;28;20522;-65
2023/11/18 10:33:37;;;;;;;3.83;2.40;;;8.00;81.30;;;9.61;61.16;98432.47;4994393;28;20511;-65
2023/11/18 10:36:12;;;;;;;4.60;2.77;;;8.10;82.10;;;9.68;61.27;98442.59;5001944;28;20410;-65
2023/11/18 10:38:47;;;;;;;2.70;2.00;;;8.20;82.10;;;9.70;60.97;98437.97;5003564;28;20050;-65
2023/11/18 10:41:16;;;;;;;2.80;1.83;;;8.10;81.60;;;9.76;60.88;98440.09;5015937;28;20053;-65
2023/11/18 10:43:45;;;;;;;3.23;2.30;;;8.20;81.00;;;9.77;60.92;98431.13;5005990;28;20050;-66